createdAt,value
2016-11-26T00:00:12.864Z,32.79
2016-11-26T00:00:53.631Z,32.79
2016-11-26T00:01:34.399Z,32.6
2016-11-26T00:02:15.163Z,32.51
2016-11-26T00:02:55.917Z,33.18
2016-11-26T00:03:36.679Z,32.51
2016-11-26T00:04:17.455Z,33.18
2016-11-26T00:04:58.205Z,33.09
2016-11-26T00:05:38.964Z,33.18
2016-11-26T00:06:19.720Z,33.09
2016-11-26T00:07:00.464Z,32.99
2016-11-26T00:07:41.210Z,32.89
2016-11-26T00:08:21.992Z,32.79
2016-11-26T00:09:02.751Z,33.18
2016-11-26T00:09:43.502Z,33.09
2016-11-26T00:10:24.271Z,32.89
2016-11-26T00:11:05.016Z,33.28
2016-11-26T00:11:45.798Z,33.09
2016-11-26T00:12:26.565Z,33.09
2016-11-26T00:13:07.330Z,33.09
2016-11-26T00:13:48.090Z,32.99
2016-11-26T00:14:28.841Z,33.09
2016-11-26T00:15:09.616Z,33.09
2016-11-26T00:15:50.354Z,33.18
2016-11-26T00:16:31.133Z,32.99
2016-11-26T00:17:11.878Z,33.28
2016-11-26T00:17:52.622Z,33.28
2016-11-26T00:18:33.367Z,33.09
2016-11-26T00:19:14.130Z,33.09
2016-11-26T00:19:54.890Z,33.09
2016-11-26T00:20:35.648Z,32.99
2016-11-26T00:21:16.434Z,33.18
2016-11-26T00:21:57.184Z,32.99
2016-11-26T00:22:37.940Z,32.51
2016-11-26T00:23:18.709Z,32.89
2016-11-26T00:23:59.499Z,33.09
2016-11-26T00:24:40.264Z,33.09
2016-11-26T00:25:21.032Z,33.09
2016-11-26T00:26:01.795Z,33.18
2016-11-26T00:26:42.568Z,32.99
2016-11-26T00:27:23.324Z,33.09
2016-11-26T00:28:04.099Z,32.99
2016-11-26T00:28:44.849Z,33.18
2016-11-26T00:29:25.578Z,33.18
2016-11-26T00:30:06.358Z,33.18
2016-11-26T00:30:47.108Z,33.28
2016-11-26T00:31:27.862Z,33.18
2016-11-26T00:32:08.651Z,33.28
2016-11-26T00:32:49.404Z,33.18
2016-11-26T00:33:30.172Z,33.18
2016-11-26T00:34:10.936Z,32.99
2016-11-26T00:34:51.693Z,33.18
2016-11-26T00:35:32.458Z,33.18
2016-11-26T00:36:13.230Z,33.18
2016-11-26T00:36:53.965Z,33.09
2016-11-26T00:37:34.758Z,33.09
2016-11-26T00:38:15.514Z,33.28
2016-11-26T00:38:56.280Z,33.09
2016-11-26T00:39:37.031Z,33.28
2016-11-26T00:40:17.801Z,33.28
2016-11-26T00:40:58.547Z,33.28
2016-11-26T00:41:39.286Z,33.28
2016-11-26T00:42:20.045Z,33.28
2016-11-26T00:43:00.782Z,33.28
2016-11-26T00:43:41.552Z,33.09
2016-11-26T00:44:22.327Z,33.37
2016-11-26T00:45:03.103Z,33.37
2016-11-26T00:45:43.834Z,33.09
2016-11-26T00:46:24.612Z,33.28
2016-11-26T00:47:05.342Z,33.09
2016-11-26T00:47:46.084Z,33.37
2016-11-26T00:48:26.858Z,33.18
2016-11-26T00:49:07.605Z,33.28
2016-11-26T00:49:48.349Z,33.28
2016-11-26T00:50:29.120Z,33.28
2016-11-26T00:51:09.887Z,33.57
2016-11-26T00:51:50.640Z,33.28
2016-11-26T00:52:31.386Z,33.28
2016-11-26T00:53:12.145Z,33.28
2016-11-26T00:53:52.890Z,33.18
2016-11-26T00:54:33.642Z,33.37
2016-11-26T00:55:14.389Z,33.28
2016-11-26T00:55:55.142Z,33.47
2016-11-26T00:56:35.895Z,33.28
2016-11-26T00:57:16.678Z,33.28
2016-11-26T00:57:57.458Z,33.28
2016-11-26T00:58:38.245Z,33.28
2016-11-26T00:59:19.527Z,33.28
2016-11-26T00:59:59.755Z,33.37
2016-11-26T01:00:40.508Z,33.28
2016-11-26T01:01:21.270Z,33.28
2016-11-26T01:02:02.045Z,33.37
2016-11-26T01:02:42.789Z,33.57
2016-11-26T01:03:23.574Z,33.28
2016-11-26T01:04:04.345Z,33.28
2016-11-26T01:04:45.089Z,33.28
2016-11-26T01:05:25.866Z,33.37
2016-11-26T01:06:06.619Z,33.47
2016-11-26T01:06:47.392Z,33.37
2016-11-26T01:07:28.181Z,33.28
2016-11-26T01:08:08.954Z,33.47
2016-11-26T01:08:49.709Z,33.28
2016-11-26T01:09:30.455Z,33.28
2016-11-26T01:10:11.287Z,33.28
2016-11-26T01:10:52.021Z,33.28
2016-11-26T01:11:32.769Z,33.47
2016-11-26T01:12:13.527Z,33.47
2016-11-26T01:12:54.289Z,33.47
2016-11-26T01:13:35.033Z,33.57
2016-11-26T01:14:15.788Z,33.47
2016-11-26T01:14:56.563Z,33.37
2016-11-26T01:15:37.293Z,33.37
2016-11-26T01:16:18.072Z,33.28
2016-11-26T01:16:58.820Z,33.47
2016-11-26T01:17:39.576Z,33.28
2016-11-26T01:18:20.331Z,33.28
2016-11-26T01:19:01.136Z,33.57
2016-11-26T01:19:41.882Z,33.28
2016-11-26T01:20:22.629Z,33.18
2016-11-26T01:21:03.411Z,33.28
2016-11-26T01:21:44.163Z,33.18
2016-11-26T01:22:24.931Z,33.28
2016-11-26T01:23:05.674Z,33.28
2016-11-26T01:23:46.431Z,33.28
2016-11-26T01:24:27.176Z,33.28
2016-11-26T01:25:07.920Z,33.28
2016-11-26T01:25:48.683Z,33.28
2016-11-26T01:26:29.421Z,33.47
2016-11-26T01:27:10.182Z,33.57
2016-11-26T01:27:50.961Z,33.28
2016-11-26T01:28:31.720Z,33.18
2016-11-26T01:29:12.454Z,33.57
2016-11-26T01:29:53.227Z,33.57
2016-11-26T01:30:33.957Z,33.18
2016-11-26T01:31:14.715Z,33.28
2016-11-26T01:31:55.502Z,33.47
2016-11-26T01:32:36.244Z,33.47
2016-11-26T01:33:17.003Z,33.57
2016-11-26T01:33:57.759Z,33.28
2016-11-26T01:34:38.539Z,33.57
2016-11-26T01:35:19.281Z,33.47
2016-11-26T01:36:00.046Z,33.18
2016-11-26T01:36:40.811Z,33.57
2016-11-26T01:37:21.565Z,33.28
2016-11-26T01:38:02.339Z,33.18
2016-11-26T01:38:43.086Z,33.37
2016-11-26T01:39:23.855Z,33.18
2016-11-26T01:40:04.596Z,33.18
2016-11-26T01:40:45.361Z,33.57
2016-11-26T01:41:26.098Z,33.28
2016-11-26T01:42:06.861Z,33.57
2016-11-26T01:42:47.625Z,33.57
2016-11-26T01:43:28.402Z,33.28
2016-11-26T01:44:09.162Z,33.28
2016-11-26T01:44:49.932Z,33.47
2016-11-26T01:45:30.682Z,33.47
2016-11-26T01:46:11.420Z,33.37
2016-11-26T01:46:52.190Z,33.47
2016-11-26T01:47:32.946Z,33.47
2016-11-26T01:48:13.676Z,33.57
2016-11-26T01:48:54.454Z,33.28
2016-11-26T01:49:35.225Z,33.47
2016-11-26T01:50:15.964Z,33.37
2016-11-26T01:50:56.724Z,33.28
2016-11-26T01:51:37.501Z,33.47
2016-11-26T01:52:18.252Z,33.57
2016-11-26T01:52:59.009Z,33.57
2016-11-26T01:53:39.785Z,33.47
2016-11-26T01:54:20.527Z,33.47
2016-11-26T01:55:01.264Z,33.18
2016-11-26T01:55:42.752Z,33.28
2016-11-26T01:56:23.542Z,33.28
2016-11-26T01:57:04.304Z,33.28
2016-11-26T01:57:45.118Z,33.28
2016-11-26T01:58:25.865Z,33.47
2016-11-26T01:59:06.613Z,33.55
2016-11-26T01:59:47.382Z,33.47
2016-11-26T02:00:28.143Z,33.47
2016-11-26T02:01:08.877Z,33.28
2016-11-26T02:01:49.633Z,33.47
2016-11-26T02:02:30.416Z,33.47
2016-11-26T02:03:11.161Z,33.57
2016-11-26T02:03:51.937Z,33.37
2016-11-26T02:04:32.708Z,33.57
2016-11-26T02:05:13.465Z,33.57
2016-11-26T02:05:54.252Z,33.47
2016-11-26T02:06:35.018Z,33.47
2016-11-26T02:07:15.770Z,33.57
2016-11-26T02:07:56.506Z,33.47
2016-11-26T02:08:37.288Z,33.47
2016-11-26T02:09:18.043Z,33.47
2016-11-26T02:09:58.777Z,33.28
2016-11-26T02:10:39.545Z,33.47
2016-11-26T02:11:20.324Z,33.28
2016-11-26T02:12:01.058Z,33.47
2016-11-26T02:12:41.821Z,33.47
2016-11-26T02:13:22.588Z,33.47
2016-11-26T02:14:03.377Z,33.47
2016-11-26T02:14:44.139Z,33.47
2016-11-26T02:15:24.890Z,33.28
2016-11-26T02:16:05.632Z,33.18
2016-11-26T02:16:46.399Z,33.47
2016-11-26T02:17:27.197Z,33.57
2016-11-26T02:18:07.980Z,33.47
2016-11-26T02:18:49.570Z,33.47
2016-11-26T02:19:29.465Z,33.57
2016-11-26T02:20:10.222Z,33.37
2016-11-26T02:20:50.964Z,33.37
2016-11-26T02:21:31.727Z,33.57
2016-11-26T02:22:12.477Z,33.57
2016-11-26T02:22:53.234Z,33.57
2016-11-26T02:23:33.991Z,33.57
2016-11-26T02:24:14.759Z,33.37
2016-11-26T02:24:55.532Z,33.57
2016-11-26T02:25:36.270Z,33.47
2016-11-26T02:26:17.043Z,33.37
2016-11-26T02:26:57.785Z,33.45
2016-11-26T02:27:38.549Z,33.47
2016-11-26T02:28:19.310Z,33.37
2016-11-26T02:29:00.070Z,33.67
2016-11-26T02:29:40.834Z,33.57
2016-11-26T02:30:21.600Z,33.47
2016-11-26T02:31:02.361Z,33.47
2016-11-26T02:31:43.097Z,33.47
2016-11-26T02:32:23.857Z,33.28
2016-11-26T02:33:04.596Z,33.37
2016-11-26T02:33:45.353Z,33.37
2016-11-26T02:34:26.120Z,33.28
2016-11-26T02:35:06.887Z,33.57
2016-11-26T02:35:47.636Z,33.28
2016-11-26T02:36:28.396Z,33.28
2016-11-26T02:37:09.190Z,33.47
2016-11-26T02:37:49.931Z,33.47
2016-11-26T02:38:30.696Z,33.47
2016-11-26T02:39:11.443Z,33.57
2016-11-26T02:39:52.228Z,33.47
2016-11-26T02:40:32.967Z,33.37
2016-11-26T02:41:13.718Z,33.47
2016-11-26T02:41:54.491Z,33.28
2016-11-26T02:42:35.230Z,33.28
2016-11-26T02:43:15.999Z,33.67
2016-11-26T02:43:56.755Z,33.28
2016-11-26T02:44:37.518Z,33.28
2016-11-26T02:45:18.280Z,33.28
2016-11-26T02:45:59.050Z,33.47
2016-11-26T02:46:39.807Z,33.57
2016-11-26T02:47:20.540Z,33.67
2016-11-26T02:48:01.326Z,33.37
2016-11-26T02:48:42.077Z,33.67
2016-11-26T02:49:22.835Z,33.47
2016-11-26T02:50:03.620Z,33.28
2016-11-26T02:50:44.380Z,33.47
2016-11-26T02:51:25.129Z,33.37
2016-11-26T02:52:05.888Z,33.37
2016-11-26T02:52:46.671Z,33.47
2016-11-26T02:53:27.374Z,33.47
2016-11-26T02:54:08.160Z,33.57
2016-11-26T02:54:48.934Z,33.47
2016-11-26T02:55:29.680Z,33.37
2016-11-26T02:56:10.467Z,33.37
2016-11-26T02:56:51.208Z,33.28
2016-11-26T02:57:31.965Z,33.57
2016-11-26T02:58:12.722Z,33.47
2016-11-26T02:58:53.468Z,33.37
2016-11-26T02:59:34.214Z,33.47
2016-11-26T03:00:14.967Z,33.28
2016-11-26T03:00:55.725Z,33.28
2016-11-26T03:01:36.488Z,33.47
2016-11-26T03:02:17.269Z,33.28
2016-11-26T03:02:58.018Z,33.47
2016-11-26T03:03:38.762Z,33.55
2016-11-26T03:04:19.547Z,33.37
2016-11-26T03:05:00.287Z,33.47
2016-11-26T03:05:41.038Z,33.47
2016-11-26T03:06:21.796Z,33.37
2016-11-26T03:07:02.548Z,33.37
2016-11-26T03:07:43.303Z,33.37
2016-11-26T03:08:24.062Z,33.57
2016-11-26T03:09:05.601Z,33.57
2016-11-26T03:09:45.572Z,33.37
2016-11-26T03:10:26.335Z,33.57
2016-11-26T03:11:07.097Z,33.47
2016-11-26T03:11:47.853Z,33.37
2016-11-26T03:12:28.600Z,33.37
2016-11-26T03:13:09.407Z,33.37
2016-11-26T03:13:50.178Z,33.47
2016-11-26T03:14:30.932Z,33.55
2016-11-26T03:15:11.767Z,33.37
2016-11-26T03:15:52.519Z,33.47
2016-11-26T03:16:33.285Z,33.57
2016-11-26T03:17:14.036Z,33.37
2016-11-26T03:17:54.832Z,33.57
2016-11-26T03:18:35.599Z,33.45
2016-11-26T03:19:16.379Z,33.67
2016-11-26T03:19:57.145Z,33.37
2016-11-26T03:20:37.872Z,33.57
2016-11-26T03:21:18.670Z,33.28
2016-11-26T03:21:59.442Z,33.36
2016-11-26T03:22:40.219Z,33.26
2016-11-26T03:23:20.980Z,33.37
2016-11-26T03:24:01.766Z,33.47
2016-11-26T03:24:42.506Z,33.57
2016-11-26T03:25:23.262Z,33.36
2016-11-26T03:26:04.025Z,33.45
2016-11-26T03:26:44.772Z,33.28
2016-11-26T03:27:25.552Z,33.37
2016-11-26T03:28:06.319Z,33.57
2016-11-26T03:28:47.082Z,33.47
2016-11-26T03:29:27.817Z,33.28
2016-11-26T03:30:09.125Z,33.36
2016-11-26T03:30:49.911Z,33.55
2016-11-26T03:31:30.641Z,33.67
2016-11-26T03:32:11.399Z,33.36
2016-11-26T03:32:52.157Z,33.47
2016-11-26T03:33:32.906Z,33.37
2016-11-26T03:34:13.683Z,33.37
2016-11-26T03:34:54.447Z,33.47
2016-11-26T03:35:35.198Z,33.57
2016-11-26T03:36:15.945Z,33.45
2016-11-26T03:36:56.723Z,33.26
2016-11-26T03:37:37.474Z,33.57
2016-11-26T03:38:18.233Z,33.47
2016-11-26T03:38:58.985Z,33.37
2016-11-26T03:39:39.751Z,33.47
2016-11-26T03:40:20.499Z,33.45
2016-11-26T03:41:01.279Z,33.36
2016-11-26T03:41:42.045Z,33.37
2016-11-26T03:42:22.771Z,33.37
2016-11-26T03:43:03.553Z,33.37
2016-11-26T03:43:44.331Z,33.57
2016-11-26T03:44:25.074Z,33.37
2016-11-26T03:45:05.815Z,33.37
2016-11-26T03:45:46.575Z,33.28
2016-11-26T03:46:27.331Z,33.28
2016-11-26T03:47:08.073Z,33.67
2016-11-26T03:47:48.877Z,33.37
2016-11-26T03:48:29.610Z,33.36
2016-11-26T03:49:10.365Z,33.55
2016-11-26T03:49:51.130Z,33.37
2016-11-26T03:50:31.916Z,33.55
2016-11-26T03:51:12.663Z,33.36
2016-11-26T03:51:54.124Z,33.36
2016-11-26T03:52:34.178Z,33.57
2016-11-26T03:53:14.932Z,33.47
2016-11-26T03:53:55.696Z,33.37
2016-11-26T03:54:36.444Z,33.37
2016-11-26T03:55:17.195Z,33.36
2016-11-26T03:55:57.940Z,33.37
2016-11-26T03:56:38.722Z,33.55
2016-11-26T03:57:19.453Z,33.28
2016-11-26T03:58:00.212Z,33.67
2016-11-26T03:58:41.711Z,33.67
2016-11-26T03:59:22.460Z,33.55
2016-11-26T04:00:03.209Z,33.28
2016-11-26T04:00:43.974Z,33.36
2016-11-26T04:01:24.725Z,33.36
2016-11-26T04:02:05.452Z,33.57
2016-11-26T04:02:46.238Z,33.36
2016-11-26T04:03:26.998Z,33.28
2016-11-26T04:04:07.743Z,33.26
2016-11-26T04:04:48.517Z,33.28
2016-11-26T04:05:29.321Z,33.36
2016-11-26T04:06:10.058Z,33.37
2016-11-26T04:06:50.818Z,33.28
2016-11-26T04:07:31.603Z,33.37
2016-11-26T04:08:12.337Z,33.28
2016-11-26T04:08:53.087Z,33.26
2016-11-26T04:09:33.866Z,33.67
2016-11-26T04:10:14.608Z,33.37
2016-11-26T04:10:55.379Z,33.45
2016-11-26T04:11:36.160Z,33.36
2016-11-26T04:12:16.926Z,33.47
2016-11-26T04:12:57.691Z,33.37
2016-11-26T04:13:38.465Z,33.28
2016-11-26T04:14:19.224Z,33.47
2016-11-26T04:14:59.944Z,33.28
2016-11-26T04:15:40.703Z,33.47
2016-11-26T04:16:21.446Z,33.37
2016-11-26T04:17:02.214Z,33.28
2016-11-26T04:17:42.946Z,33.36
2016-11-26T04:18:23.728Z,33.37
2016-11-26T04:19:04.485Z,33.57
2016-11-26T04:19:45.234Z,33.47
2016-11-26T04:20:26.003Z,33.26
2016-11-26T04:21:06.745Z,33.28
2016-11-26T04:21:47.490Z,33.28
2016-11-26T04:22:28.252Z,33.28
2016-11-26T04:23:09.875Z,33.37
2016-11-26T04:23:50.615Z,33.37
2016-11-26T04:24:31.369Z,33.65
2016-11-26T04:25:12.151Z,33.47
2016-11-26T04:25:52.890Z,33.37
2016-11-26T04:26:33.666Z,33.47
2016-11-26T04:27:14.447Z,33.36
2016-11-26T04:27:55.196Z,33.26
2016-11-26T04:28:35.951Z,33.26
2016-11-26T04:29:16.722Z,33.57
2016-11-26T04:29:57.490Z,33.55
2016-11-26T04:30:38.276Z,33.26
2016-11-26T04:31:19.071Z,33.45
2016-11-26T04:31:59.812Z,33.67
2016-11-26T04:32:40.586Z,33.76
2016-11-26T04:33:21.365Z,33.36
2016-11-26T04:34:02.122Z,33.45
2016-11-26T04:34:42.868Z,33.55
2016-11-26T04:35:23.610Z,33.28
2016-11-26T04:36:04.376Z,33.28
2016-11-26T04:36:45.095Z,33.28
2016-11-26T04:37:25.856Z,33.36
2016-11-26T04:38:06.625Z,33.57
2016-11-26T04:38:47.385Z,33.36
2016-11-26T04:39:28.126Z,33.26
2016-11-26T04:40:08.912Z,33.17
2016-11-26T04:40:49.668Z,33.57
2016-11-26T04:41:30.415Z,33.36
2016-11-26T04:42:11.188Z,33.17
2016-11-26T04:42:51.993Z,33.26
2016-11-26T04:43:32.754Z,33.65
2016-11-26T04:44:13.505Z,33.36
2016-11-26T04:44:54.276Z,33.36
2016-11-26T04:45:35.029Z,33.36
2016-11-26T04:46:15.807Z,33.17
2016-11-26T04:46:56.587Z,33.55
2016-11-26T04:47:37.315Z,33.65
2016-11-26T04:48:18.075Z,33.55
2016-11-26T04:48:58.846Z,33.57
2016-11-26T04:49:39.591Z,33.65
2016-11-26T04:50:20.364Z,33.36
2016-11-26T04:51:01.127Z,33.17
2016-11-26T04:51:41.872Z,33.17
2016-11-26T04:52:22.647Z,33.55
2016-11-26T04:53:03.415Z,33.65
2016-11-26T04:53:44.151Z,33.26
2016-11-26T04:54:24.902Z,33.65
2016-11-26T04:55:05.674Z,33.65
2016-11-26T04:55:46.424Z,33.55
2016-11-26T04:56:27.166Z,33.65
2016-11-26T04:57:07.933Z,33.55
2016-11-26T04:57:48.690Z,33.55
2016-11-26T04:58:29.438Z,33.28
2016-11-26T04:59:10.201Z,33.37
2016-11-26T04:59:50.963Z,33.57
2016-11-26T05:00:31.715Z,33.55
2016-11-26T05:01:12.472Z,33.55
2016-11-26T05:01:53.231Z,33.55
2016-11-26T05:02:33.997Z,33.45
2016-11-26T05:03:15.381Z,33.65
2016-11-26T05:03:56.174Z,33.55
2016-11-26T05:04:36.942Z,33.45
2016-11-26T05:05:17.683Z,33.57
2016-11-26T05:05:58.469Z,33.45
2016-11-26T05:06:39.209Z,33.45
2016-11-26T05:07:19.970Z,33.57
2016-11-26T05:08:00.722Z,33.45
2016-11-26T05:08:41.485Z,33.47
2016-11-26T05:09:22.245Z,33.45
2016-11-26T05:10:03.009Z,33.45
2016-11-26T05:10:43.758Z,33.45
2016-11-26T05:11:24.498Z,33.45
2016-11-26T05:12:05.284Z,33.45
2016-11-26T05:12:46.023Z,33.17
2016-11-26T05:13:26.794Z,33.55
2016-11-26T05:14:07.564Z,33.45
2016-11-26T05:14:48.281Z,33.47
2016-11-26T05:15:29.047Z,33.37
2016-11-26T05:16:09.780Z,33.45
2016-11-26T05:16:50.521Z,33.45
2016-11-26T05:17:31.266Z,33.47
2016-11-26T05:18:12.064Z,33.45
2016-11-26T05:18:52.809Z,33.47
2016-11-26T05:19:33.546Z,33.45
2016-11-26T05:20:14.315Z,33.26
2016-11-26T05:20:55.064Z,33.45
2016-11-26T05:21:35.812Z,33.65
2016-11-26T05:22:16.602Z,33.37
2016-11-26T05:22:57.366Z,33.45
2016-11-26T05:23:38.107Z,33.45
2016-11-26T05:24:18.854Z,33.28
2016-11-26T05:24:59.635Z,33.45
2016-11-26T05:25:40.348Z,33.37
2016-11-26T05:26:21.121Z,33.26
2016-11-26T05:27:01.882Z,33.36
2016-11-26T05:27:42.623Z,33.57
2016-11-26T05:28:23.371Z,33.36
2016-11-26T05:29:04.134Z,33.57
2016-11-26T05:29:44.897Z,33.47
2016-11-26T05:30:25.653Z,33.67
2016-11-26T05:31:06.427Z,33.55
2016-11-26T05:31:47.175Z,33.57
2016-11-26T05:32:27.938Z,33.55
2016-11-26T05:33:08.674Z,33.45
2016-11-26T05:33:49.440Z,33.36
2016-11-26T05:34:30.179Z,33.37
2016-11-26T05:35:10.945Z,33.36
2016-11-26T05:35:51.689Z,33.65
2016-11-26T05:36:32.400Z,33.57
2016-11-26T05:37:13.184Z,33.57
2016-11-26T05:37:53.970Z,33.55
2016-11-26T05:38:34.725Z,33.57
2016-11-26T05:39:15.478Z,33.55
2016-11-26T05:39:56.252Z,33.55
2016-11-26T05:40:37.017Z,33.47
2016-11-26T05:41:17.772Z,33.65
2016-11-26T05:41:58.556Z,33.55
2016-11-26T05:42:39.296Z,33.57
2016-11-26T05:43:20.056Z,33.55
2016-11-26T05:44:00.830Z,33.45
2016-11-26T05:44:41.605Z,33.45
2016-11-26T05:45:22.349Z,33.45
2016-11-26T05:46:03.117Z,33.45
2016-11-26T05:46:43.885Z,33.55
2016-11-26T05:47:24.631Z,33.45
2016-11-26T05:48:05.391Z,33.55
2016-11-26T05:48:46.174Z,33.45
2016-11-26T05:49:26.904Z,33.45
2016-11-26T05:50:07.655Z,33.45
2016-11-26T05:50:48.443Z,33.55
2016-11-26T05:51:29.195Z,33.47
2016-11-26T05:52:09.953Z,33.45
2016-11-26T05:52:50.728Z,33.45
2016-11-26T05:53:31.480Z,33.45
2016-11-26T05:54:12.243Z,33.45
2016-11-26T05:54:53.012Z,33.45
2016-11-26T05:55:33.760Z,33.45
2016-11-26T05:56:14.512Z,33.55
2016-11-26T05:56:55.278Z,33.45
2016-11-26T05:57:36.056Z,33.57
2016-11-26T05:58:16.839Z,33.57
2016-11-26T05:58:57.616Z,33.45
2016-11-26T05:59:38.412Z,33.55
2016-11-26T06:00:19.135Z,33.45
2016-11-26T06:00:59.888Z,33.55
2016-11-26T06:01:40.667Z,33.65
2016-11-26T06:02:21.429Z,33.45
2016-11-26T06:03:02.169Z,33.36
2016-11-26T06:03:42.955Z,33.75
2016-11-26T06:04:23.707Z,33.65
2016-11-26T06:05:04.455Z,33.65
2016-11-26T06:05:45.224Z,33.75
2016-11-26T06:06:25.988Z,33.65
2016-11-26T06:07:06.755Z,33.65
2016-11-26T06:07:47.548Z,33.45
2016-11-26T06:08:28.315Z,33.55
2016-11-26T06:09:09.065Z,33.36
2016-11-26T06:09:49.839Z,33.65
2016-11-26T06:10:30.583Z,33.45
2016-11-26T06:11:11.348Z,33.65
2016-11-26T06:11:52.102Z,33.84
2016-11-26T06:12:32.895Z,33.36
2016-11-26T06:13:13.684Z,33.65
2016-11-26T06:13:54.424Z,33.65
2016-11-26T06:14:35.196Z,33.65
2016-11-26T06:15:15.950Z,33.65
2016-11-26T06:15:56.719Z,33.65
2016-11-26T06:16:37.483Z,33.75
2016-11-26T06:17:18.255Z,33.65
2016-11-26T06:17:59.015Z,33.65
2016-11-26T06:18:39.807Z,33.65
2016-11-26T06:19:20.586Z,33.65
2016-11-26T06:20:01.294Z,33.75
2016-11-26T06:20:42.054Z,33.55
2016-11-26T06:21:22.811Z,33.75
2016-11-26T06:22:03.566Z,33.65
2016-11-26T06:22:44.314Z,33.65
2016-11-26T06:23:25.076Z,33.65
2016-11-26T06:24:05.893Z,33.65
2016-11-26T06:24:46.646Z,33.65
2016-11-26T06:25:27.425Z,33.65
2016-11-26T06:26:08.198Z,33.55
2016-11-26T06:26:48.963Z,33.55
2016-11-26T06:27:29.720Z,33.65
2016-11-26T06:28:10.506Z,33.65
2016-11-26T06:28:51.227Z,33.65
2016-11-26T06:29:32.014Z,33.55
2016-11-26T06:30:12.781Z,33.65
2016-11-26T06:30:53.510Z,33.65
2016-11-26T06:31:34.293Z,33.55
2016-11-26T06:32:15.052Z,33.45
2016-11-26T06:32:55.803Z,33.55
2016-11-26T06:33:36.560Z,33.75
2016-11-26T06:34:17.316Z,33.94
2016-11-26T06:34:58.077Z,33.75
2016-11-26T06:35:38.842Z,33.75
2016-11-26T06:36:19.649Z,33.75
2016-11-26T06:37:00.417Z,33.75
2016-11-26T06:37:41.188Z,33.75
2016-11-26T06:38:21.953Z,33.94
2016-11-26T06:39:02.731Z,33.75
2016-11-26T06:39:43.505Z,33.75
2016-11-26T06:40:24.271Z,33.84
2016-11-26T06:41:05.043Z,33.65
2016-11-26T06:41:45.795Z,33.75
2016-11-26T06:42:26.567Z,33.65
2016-11-26T06:43:07.331Z,33.75
2016-11-26T06:43:48.092Z,33.55
2016-11-26T06:44:28.875Z,33.55
2016-11-26T06:45:09.642Z,33.75
2016-11-26T06:45:50.409Z,33.55
2016-11-26T06:46:31.204Z,33.75
2016-11-26T06:47:11.933Z,33.65
2016-11-26T06:47:52.712Z,33.45
2016-11-26T06:48:33.475Z,33.65
2016-11-26T06:49:14.223Z,33.75
2016-11-26T06:49:54.984Z,33.75
2016-11-26T06:50:35.764Z,33.94
2016-11-26T06:51:16.522Z,33.94
2016-11-26T06:51:57.299Z,33.94
2016-11-26T06:52:38.099Z,33.94
2016-11-26T06:53:18.860Z,33.75
2016-11-26T06:53:59.619Z,33.84
2016-11-26T06:54:40.365Z,33.75
2016-11-26T06:55:21.116Z,33.94
2016-11-26T06:56:01.863Z,33.94
2016-11-26T06:56:42.617Z,33.75
2016-11-26T06:57:23.380Z,33.84
2016-11-26T06:58:04.133Z,33.75
2016-11-26T06:58:44.899Z,33.94
2016-11-26T06:59:25.678Z,33.94
2016-11-26T07:00:06.425Z,33.84
2016-11-26T07:00:47.164Z,33.84
2016-11-26T07:01:27.924Z,33.84
2016-11-26T07:02:08.697Z,33.94
2016-11-26T07:02:49.436Z,33.84
2016-11-26T07:03:30.208Z,33.84
2016-11-26T07:04:10.965Z,33.84
2016-11-26T07:04:51.702Z,34.04
2016-11-26T07:05:32.474Z,33.75
2016-11-26T07:06:13.241Z,34.04
2016-11-26T07:06:53.970Z,33.84
2016-11-26T07:07:34.720Z,34.23
2016-11-26T07:08:15.482Z,33.94
2016-11-26T07:08:56.212Z,34.13
2016-11-26T07:09:36.978Z,33.84
2016-11-26T07:10:17.721Z,34.13
2016-11-26T07:10:58.469Z,34.04
2016-11-26T07:11:39.243Z,33.94
2016-11-26T07:12:20.033Z,34.04
2016-11-26T07:13:00.812Z,34.04
2016-11-26T07:13:41.571Z,34.13
2016-11-26T07:14:22.374Z,34.23
2016-11-26T07:15:03.129Z,33.94
2016-11-26T07:15:43.870Z,33.94
2016-11-26T07:16:24.640Z,33.94
2016-11-26T07:17:05.407Z,34.23
2016-11-26T07:17:46.152Z,34.13
2016-11-26T07:18:26.910Z,34.13
2016-11-26T07:19:07.684Z,34.13
2016-11-26T07:19:48.418Z,34.13
2016-11-26T07:20:29.191Z,34.04
2016-11-26T07:21:09.971Z,34.04
2016-11-26T07:21:51.235Z,33.94
2016-11-26T07:22:31.474Z,34.04
2016-11-26T07:23:12.245Z,34.04
2016-11-26T07:23:52.994Z,34.13
2016-11-26T07:24:33.758Z,34.04
2016-11-26T07:25:14.545Z,33.94
2016-11-26T07:25:55.272Z,34.23
2016-11-26T07:26:36.025Z,33.84
2016-11-26T07:27:16.782Z,34.23
2016-11-26T07:27:57.541Z,33.94
2016-11-26T07:28:38.300Z,33.94
2016-11-26T07:29:19.084Z,34.13
2016-11-26T07:29:59.853Z,34.04
2016-11-26T07:30:40.595Z,34.04
2016-11-26T07:31:21.373Z,34.13
2016-11-26T07:32:02.152Z,34.13
2016-11-26T07:32:42.903Z,33.94
2016-11-26T07:33:23.651Z,33.94
2016-11-26T07:34:04.424Z,34.33
2016-11-26T07:34:45.189Z,33.84
2016-11-26T07:35:25.927Z,33.94
2016-11-26T07:36:06.700Z,34.23
2016-11-26T07:36:47.446Z,33.94
2016-11-26T07:37:28.213Z,34.13
2016-11-26T07:38:08.980Z,33.84
2016-11-26T07:38:49.753Z,33.94
2016-11-26T07:39:30.468Z,34.13
2016-11-26T07:40:11.217Z,33.94
2016-11-26T07:40:51.981Z,34.23
2016-11-26T07:41:32.701Z,34.04
2016-11-26T07:42:13.496Z,34.23
2016-11-26T07:42:54.258Z,34.04
2016-11-26T07:43:35.007Z,34.33
2016-11-26T07:44:15.772Z,34.23
2016-11-26T07:44:56.557Z,33.94
2016-11-26T07:45:37.314Z,33.94
2016-11-26T07:46:18.055Z,33.94
2016-11-26T07:46:58.839Z,34.23
2016-11-26T07:47:39.574Z,34.13
2016-11-26T07:48:20.327Z,33.84
2016-11-26T07:49:01.102Z,33.94
2016-11-26T07:49:41.867Z,33.94
2016-11-26T07:50:22.605Z,34.04
2016-11-26T07:51:03.369Z,33.84
2016-11-26T07:51:44.134Z,34.13
2016-11-26T07:52:24.882Z,34.04
2016-11-26T07:53:05.642Z,34.13
2016-11-26T07:53:46.401Z,33.94
2016-11-26T07:54:27.159Z,34.04
2016-11-26T07:55:07.921Z,34.13
2016-11-26T07:55:48.693Z,33.94
2016-11-26T07:56:29.461Z,33.94
2016-11-26T07:57:10.233Z,34.04
2016-11-26T07:57:51.037Z,34.04
2016-11-26T07:58:31.786Z,33.84
2016-11-26T07:59:12.548Z,33.94
2016-11-26T07:59:53.321Z,33.94
2016-11-26T08:00:34.110Z,33.84
2016-11-26T08:01:15.679Z,34.04
2016-11-26T08:01:56.454Z,33.94
2016-11-26T08:02:37.225Z,34.13
2016-11-26T08:03:17.986Z,33.94
2016-11-26T08:03:58.751Z,34.13
2016-11-26T08:04:39.537Z,34.13
2016-11-26T08:05:20.277Z,34.13
2016-11-26T08:06:01.021Z,34.13
2016-11-26T08:06:41.811Z,34.13
2016-11-26T08:07:22.558Z,34.13
2016-11-26T08:08:03.304Z,34.13
2016-11-26T08:08:44.110Z,34.04
2016-11-26T08:09:24.861Z,34.13
2016-11-26T08:10:05.603Z,34.13
2016-11-26T08:10:46.381Z,34.13
2016-11-26T08:11:27.137Z,34.13
2016-11-26T08:12:07.868Z,34.23
2016-11-26T08:12:48.652Z,34.04
2016-11-26T08:13:29.420Z,34.23
2016-11-26T08:14:10.770Z,33.94
2016-11-26T08:14:51.589Z,34.13
2016-11-26T08:15:32.357Z,34.04
2016-11-26T08:16:13.140Z,34.04
2016-11-26T08:16:53.914Z,34.04
2016-11-26T08:17:34.699Z,34.04
2016-11-26T08:18:15.462Z,34.04
2016-11-26T08:18:56.228Z,34.04
2016-11-26T08:19:37.008Z,34.04
2016-11-26T08:20:17.757Z,34.33
2016-11-26T08:20:58.508Z,34.04
2016-11-26T08:21:39.286Z,34.33
2016-11-26T08:22:20.031Z,34.04
2016-11-26T08:23:00.762Z,34.04
2016-11-26T08:23:41.535Z,34.04
2016-11-26T08:24:22.271Z,34.04
2016-11-26T08:25:03.015Z,34.33
2016-11-26T08:25:43.823Z,34.33
2016-11-26T08:26:24.582Z,34.42
2016-11-26T08:27:05.344Z,34.42
2016-11-26T08:27:46.135Z,34.42
2016-11-26T08:28:26.907Z,34.33
2016-11-26T08:29:07.654Z,34.04
2016-11-26T08:29:48.418Z,33.94
2016-11-26T08:30:29.224Z,34.52
2016-11-26T08:31:09.972Z,34.33
2016-11-26T08:31:50.727Z,34.23
2016-11-26T08:32:31.502Z,34.33
2016-11-26T08:33:12.321Z,34.23
2016-11-26T08:33:53.052Z,34.33
2016-11-26T08:34:33.801Z,34.42
2016-11-26T08:35:14.549Z,34.42
2016-11-26T08:35:55.293Z,34.42
2016-11-26T08:36:36.070Z,34.04
2016-11-26T08:37:16.819Z,34.52
2016-11-26T08:37:57.567Z,34.04
2016-11-26T08:38:38.304Z,34.42
2016-11-26T08:39:19.092Z,34.42
2016-11-26T08:39:59.844Z,34.23
2016-11-26T08:40:40.620Z,34.33
2016-11-26T08:41:21.426Z,34.42
2016-11-26T08:42:02.178Z,34.42
2016-11-26T08:42:42.932Z,34.42
2016-11-26T08:43:23.685Z,34.42
2016-11-26T08:44:04.469Z,34.42
2016-11-26T08:44:45.204Z,33.94